Weather History for Chester, CT

Change the Weather History Date:

Saturday, February 23, 2013

  Actual Average (KHVN) Record (KHVN)
Temperature  
Mean Temperature 35 °F -  
Max Temperature 37 °F 40 °F 46 °F (2014)
Min Temperature 33 °F 26 °F 28 °F (2014)
Degree Days  
Heating Degree Days 30    
Moisture  
Dew Point 33 °F    
Average Humidity 93    
Maximum Humidity 100    
Minimum Humidity 81    
Precipitation  
Precipitation 0.46 in - - ()
Sea Level Pressure  
Sea Level Pressure 30.08 in    
Wind  
Wind Speed 5 mph (ESE)    
Max Wind Speed 12 mph    
Max Gust Speed 20 mph    
Visibility 5 miles    
Events Rain    
Averages and records for this station are not official NWS values.
T = Trace of Precipitation, MM = Missing Value Source: NWS Daily Summary

Daily Weather History Graph

Daily Weather History Graph

Search for Another Location

Airport:

Trip Planner

Search our weather history database for the weather conditions in past years. The results will help you decide how hot, cold, wet, or windy it might be!

Date:

Astronomy

Feb. 23, 2013 Rise Set
Actual Time 6:33 AM EST 5:33 PM EST
Civil Twilight 6:05 AM EST 6:01 PM EST
Nautical Twilight 5:33 AM EST 6:34 PM EST
Astronomical Twilight 5:01 AM EST 7:06 PM EST
Moon 3:40 PM EST 4:55 AM EST
Length of Visible Light 11h 56m
Length of Day
11h 00m
Waxing Gibbous, 95% of the Moon is Illuminated
Feb 23
Waxing Gibbous
Feb 25
Full
Mar 4
Last Quarter
Mar 11
New
Mar 19
First Quarter

Hourly Weather History & Observations

Time (EST) Temp. Windchill Dew Point Humidity Pressure Visibility Wind Dir Wind Speed Gust Speed Precip Events Conditions
12:15 AM 33.8 °F 30.8 °F 28.4 °F 81% 30.28 in 10.0 mi ESE 3.5 mph - N/A   Overcast
12:35 AM 33.8 °F 30.8 °F 28.4 °F 81% 30.28 in 10.0 mi ESE 3.5 mph - N/A   Overcast
12:55 AM 33.8 °F 30.8 °F 28.4 °F 81% 30.28 in 10.0 mi SE 3.5 mph - N/A   Overcast
1:15 AM 33.8 °F 29.6 °F 28.4 °F 81% 30.27 in 10.0 mi SE 4.6 mph - N/A   Overcast
1:35 AM 33.8 °F - 28.4 °F 81% 30.27 in 10.0 mi Calm Calm - N/A   Overcast
1:55 AM 33.8 °F - 28.4 °F 81% 30.26 in 10.0 mi Calm Calm - N/A   Overcast
2:15 AM 33.8 °F - 28.4 °F 81% 30.26 in 10.0 mi Calm Calm - N/A   Overcast
2:55 AM 33.8 °F 30.8 °F 28.4 °F 81% 30.24 in 10.0 mi East 3.5 mph - N/A   Overcast
3:15 AM 33.8 °F 29.6 °F 28.4 °F 81% 30.23 in 10.0 mi SE 4.6 mph - N/A   Overcast
3:35 AM 33.8 °F 29.6 °F 28.4 °F 81% 30.23 in 10.0 mi ESE 4.6 mph - N/A   Overcast
3:55 AM 33.8 °F 30.8 °F 30.2 °F 87% 30.23 in 10.0 mi ESE 3.5 mph - N/A   Overcast
4:15 AM 33.8 °F 30.8 °F 30.2 °F 87% 30.22 in 10.0 mi ESE 3.5 mph - N/A   Overcast
4:35 AM 33.8 °F 30.8 °F 30.2 °F 87% 30.21 in 10.0 mi ESE 3.5 mph - N/A   Overcast
4:55 AM 33.8 °F 30.8 °F 30.2 °F 87% 30.21 in 10.0 mi ESE 3.5 mph - N/A   Overcast
5:15 AM 33.8 °F - 30.2 °F 87% 30.21 in 10.0 mi Calm Calm - N/A   Overcast
5:35 AM 33.8 °F - 30.2 °F 87% 30.20 in 10.0 mi Calm Calm - N/A   Overcast
5:55 AM 33.8 °F - 30.2 °F 87% 30.20 in 10.0 mi Calm Calm - N/A   Overcast
6:15 AM 33.8 °F 30.8 °F 32.0 °F 93% 30.20 in 9.0 mi ESE 3.5 mph - N/A   Overcast
6:35 AM 33.8 °F 30.8 °F 32.0 °F 93% 30.20 in 10.0 mi ESE 3.5 mph - N/A   Overcast
6:55 AM 33.8 °F 29.6 °F 32.0 °F 93% 30.20 in 9.0 mi SE 4.6 mph - N/A   Overcast
7:15 AM 33.8 °F 29.6 °F 32.0 °F 93% 30.20 in 1.5 mi SE 4.6 mph - N/A   Overcast
7:35 AM 35.6 °F 32.8 °F 33.8 °F 93% 30.18 in 4.0 mi SE 3.5 mph - N/A   Overcast
7:55 AM 35.6 °F 30.7 °F 33.8 °F 93% 30.18 in 3.0 mi ESE 5.8 mph - N/A   Overcast
8:15 AM 35.6 °F 30.7 °F 33.8 °F 93% 30.17 in 9.0 mi ESE 5.8 mph - N/A   Overcast
8:35 AM 35.6 °F 30.7 °F 33.8 °F 93% 30.17 in 10.0 mi ESE 5.8 mph - N/A   Overcast
8:55 AM 37.4 °F 32.1 °F 33.8 °F 87% 30.17 in 7.0 mi ESE 6.9 mph - N/A   Overcast
9:15 AM 37.4 °F 30.8 °F 33.8 °F 87% 30.16 in 10.0 mi ESE 9.2 mph - N/A   Overcast
9:35 AM 37.4 °F 31.4 °F 33.8 °F 87% 30.15 in 9.0 mi SE 8.1 mph 16.1 mph N/A   Overcast
9:55 AM 37.4 °F 31.4 °F 33.8 °F 87% 30.14 in 2.5 mi SE 8.1 mph - N/A   Overcast
10:15 AM 37.4 °F 30.8 °F 35.6 °F 93% 30.12 in 1.5 mi ESE 9.2 mph 16.1 mph N/A   Overcast
10:35 AM 37.4 °F 32.1 °F 35.6 °F 93% 30.12 in 2.0 mi ESE 6.9 mph - N/A   Overcast
10:55 AM 37.4 °F 30.8 °F 35.6 °F 93% 30.12 in 5.0 mi SE 9.2 mph 17.3 mph N/A   Overcast
11:15 AM 37.4 °F 32.1 °F 35.6 °F 93% 30.12 in 6.0 mi SE 6.9 mph 18.4 mph N/A   Overcast
11:35 AM 37.4 °F 29.8 °F 35.6 °F 93% 30.11 in 3.0 mi SE 11.5 mph 19.6 mph N/A   Overcast
11:55 AM 37.4 °F 29.8 °F 35.6 °F 93% 30.09 in 0.8 mi SE 11.5 mph 17.3 mph N/A Rain Light Rain
12:15 PM 37.4 °F 32.1 °F 35.6 °F 93% 30.08 in 1.2 mi ESE 6.9 mph - N/A Rain Light Rain
12:35 PM 37.4 °F 30.8 °F 35.6 °F 93% 30.08 in 1.5 mi SE 9.2 mph 17.3 mph N/A   Overcast
12:55 PM 37.4 °F 30.8 °F 35.6 °F 93% 30.06 in 1.8 mi ESE 9.2 mph - N/A   Overcast
1:15 PM 37.4 °F 30.8 °F 35.6 °F 93% 30.06 in 2.0 mi SE 9.2 mph 18.4 mph N/A   Overcast
1:35 PM 37.4 °F 30.8 °F 35.6 °F 93% 30.06 in 4.0 mi SE 9.2 mph 18.4 mph N/A   Overcast
1:55 PM 37.4 °F 33.8 °F 35.6 °F 93% 30.05 in 4.0 mi ESE 4.6 mph 16.1 mph N/A   Overcast
2:15 PM 37.4 °F 32.1 °F 35.6 °F 93% 30.05 in 3.0 mi ESE 6.9 mph - N/A   Overcast
2:35 PM 37.4 °F 32.1 °F 35.6 °F 93% 30.04 in 3.0 mi East 6.9 mph - N/A Rain Light Rain
2:55 PM 35.6 °F 29.2 °F 35.6 °F 100% 30.03 in 4.0 mi East 8.1 mph - 0.01 in   Overcast
3:15 PM 35.6 °F 28.6 °F 35.6 °F 100% 30.02 in 7.0 mi East 9.2 mph - N/A   Overcast
3:35 PM 35.6 °F 29.2 °F 35.6 °F 100% 30.01 in 7.0 mi ESE 8.1 mph - N/A   Overcast
3:55 PM 35.6 °F 29.9 °F 33.8 °F 93% 30.01 in 8.0 mi East 6.9 mph 17.3 mph N/A Rain Light Rain
4:15 PM 35.6 °F 29.9 °F 33.8 °F 93% 30.01 in 3.0 mi East 6.9 mph - 0.02 in Rain Light Rain
4:35 PM 35.6 °F 29.2 °F 33.8 °F 93% 30.01 in 3.0 mi East 8.1 mph - 0.04 in Rain Light Rain
4:55 PM 35.6 °F 29.9 °F 33.8 °F 93% 30.00 in 3.0 mi East 6.9 mph - 0.07 in Rain Light Rain
5:15 PM 35.6 °F 29.2 °F 33.8 °F 93% 29.99 in 4.0 mi East 8.1 mph - 0.03 in Rain Light Rain
5:35 PM 33.8 °F 27.0 °F 33.8 °F 100% 29.98 in 3.0 mi East 8.1 mph - 0.05 in Rain Rain
5:55 PM 33.8 °F 26.4 °F 33.8 °F 100% 29.97 in 2.5 mi East 9.2 mph - 0.13 in Rain Light Rain
6:15 PM 33.8 °F 28.6 °F 33.8 °F 100% 29.97 in 3.0 mi ENE 5.8 mph - 0.01 in Rain Rain
6:35 PM 33.8 °F 27.0 °F 33.8 °F 100% 29.96 in 3.0 mi East 8.1 mph - 0.08 in Rain Rain
6:55 PM 33.8 °F 27.7 °F 33.8 °F 100% 29.96 in 2.5 mi East 6.9 mph - 0.12 in Rain Light Rain
7:15 PM 33.8 °F 27.0 °F 33.8 °F 100% 29.95 in 1.8 mi East 8.1 mph - 0.01 in Rain Light Rain
7:35 PM 33.8 °F 27.7 °F 33.8 °F 100% 29.95 in 2.0 mi ENE 6.9 mph - 0.04 in Rain Light Rain
7:55 PM 33.8 °F 27.0 °F 33.8 °F 100% 29.94 in 2.0 mi ENE 8.1 mph - 0.06 in Rain Rain
8:15 PM 35.6 °F 29.2 °F 35.6 °F 100% 29.92 in 2.5 mi ENE 8.1 mph - N/A Rain Light Rain
8:35 PM 33.8 °F 26.4 °F 33.8 °F 100% 29.91 in 2.5 mi East 9.2 mph 16.1 mph 0.01 in   Overcast
8:55 PM 33.8 °F 25.3 °F 33.8 °F 100% 29.88 in 2.5 mi East 11.5 mph 16.1 mph 0.01 in   Overcast
9:15 PM 35.6 °F 28.6 °F 35.6 °F 100% 29.87 in 3.0 mi ENE 9.2 mph - N/A   Overcast
9:35 PM 35.6 °F 27.5 °F 35.6 °F 100% 29.86 in 5.0 mi ENE 11.5 mph 16.1 mph N/A   Overcast
9:55 PM 35.6 °F 29.2 °F 35.6 °F 100% 29.85 in 7.0 mi NE 8.1 mph - N/A   Overcast
10:15 PM 35.6 °F 29.2 °F 35.6 °F 100% 29.84 in 5.0 mi NE 8.1 mph - N/A   Overcast
10:35 PM 35.6 °F 30.7 °F 35.6 °F 100% 29.84 in 1.5 mi NE 5.8 mph - N/A Rain Light Rain
10:55 PM 35.6 °F 29.2 °F 35.6 °F 100% 29.82 in 1.0 mi NNE 8.1 mph - 0.03 in Rain Light Rain
11:15 PM 35.6 °F 29.2 °F 35.6 °F 100% 29.82 in 2.0 mi NE 8.1 mph - 0.01 in Rain Light Rain
11:35 PM 35.6 °F 29.9 °F 35.6 °F 100% 29.81 in 1.8 mi NNE 6.9 mph - 0.02 in   Light Drizzle
11:55 PM 35.6 °F 28.6 °F 35.6 °F 100% 29.81 in 1.5 mi NNE 9.2 mph - 0.03 in Rain Light Rain